createdAt,value
2022-10-12T00:00:52.151Z,21.77
2022-10-12T00:03:18.877Z,14.70
2022-10-12T00:05:45.754Z,15.52
2022-10-12T00:08:12.201Z,19.42
2022-10-12T00:10:42.256Z,18.85
2022-10-12T00:13:09.003Z,20.80
2022-10-12T00:15:39.168Z,27.83
2022-10-12T00:18:05.940Z,12.85
2022-10-12T00:20:32.689Z,24.40
2022-10-12T00:22:59.054Z,19.92
2022-10-12T00:25:25.439Z,14.20
2022-10-12T00:27:51.901Z,18.10
2022-10-12T00:30:18.463Z,16.15
2022-10-12T00:32:44.854Z,18.25
2022-10-12T00:35:11.324Z,22.38
2022-10-12T00:37:37.854Z,21.17
2022-10-12T00:40:04.604Z,14.95
2022-10-12T00:42:31.254Z,13.18
2022-10-12T00:44:57.774Z,15.07
2022-10-12T00:47:32.889Z,24.00
2022-10-12T00:50:18.607Z,19.20
2022-10-12T00:52:47.905Z,20.48
2022-10-12T00:55:15.380Z,16.98
2022-10-12T00:57:46.629Z,13.80
2022-10-12T01:00:13.719Z,15.68
2022-10-12T01:02:41.569Z,18.83
2022-10-12T01:05:08.140Z,15.85
2022-10-12T01:07:34.579Z,13.93
2022-10-12T01:10:01.032Z,15.55
2022-10-12T01:12:27.994Z,19.00
2022-10-12T01:14:54.381Z,17.95
2022-10-12T01:17:26.930Z,14.02
2022-10-12T01:20:08.861Z,21.05
2022-10-12T01:22:39.777Z,21.15
2022-10-12T01:25:30.703Z,20.42
2022-10-12T01:28:02.915Z,17.48
2022-10-12T01:30:33.504Z,17.98
2022-10-12T01:33:02.683Z,19.77
2022-10-12T01:35:34.352Z,16.85
2022-10-12T01:38:06.572Z,17.65
2022-10-12T01:40:35.726Z,22.15
2022-10-12T01:43:02.418Z,18.70
2022-10-12T01:45:28.768Z,18.85
2022-10-12T01:47:55.341Z,14.82
2022-10-12T01:50:22.804Z,15.68
2022-10-12T01:52:58.149Z,17.10
2022-10-12T01:55:40.024Z,16.23
2022-10-12T01:58:18.440Z,13.10
2022-10-12T02:01:03.623Z,16.23
2022-10-12T02:03:36.766Z,17.60
2022-10-12T02:06:06.722Z,17.33
2022-10-12T02:08:47.286Z,18.42
2022-10-12T02:11:15.091Z,18.23
2022-10-12T02:13:43.212Z,11.82
2022-10-12T02:16:12.583Z,13.38
2022-10-12T02:18:41.227Z,18.55
2022-10-12T02:21:09.322Z,15.93
2022-10-12T02:23:36.319Z,13.43
2022-10-12T02:26:02.920Z,11.20
2022-10-12T02:28:30.824Z,16.27
2022-10-12T02:31:03.310Z,12.85
2022-10-12T02:33:32.408Z,13.18
2022-10-12T02:36:01.014Z,16.17
2022-10-12T02:38:32.981Z,14.32
2022-10-12T02:41:05.538Z,11.68
2022-10-12T02:43:58.043Z,16.60
2022-10-12T02:46:25.544Z,11.35
2022-10-12T02:48:53.229Z,10.68
2022-10-12T02:51:19.749Z,13.45
2022-10-12T02:53:46.461Z,15.85
2022-10-12T02:56:14.241Z,13.85
2022-10-12T02:58:42.864Z,13.65
2022-10-12T03:01:09.289Z,16.23
2022-10-12T03:03:35.669Z,10.02
2022-10-12T03:06:02.008Z,13.07
2022-10-12T03:08:28.430Z,18.92
2022-10-12T03:10:54.784Z,12.60
2022-10-12T03:13:21.126Z,9.75
2022-10-12T03:15:47.449Z,15.32
2022-10-12T03:18:14.038Z,14.18
2022-10-12T03:20:40.348Z,14.13
2022-10-12T03:23:06.878Z,18.10
2022-10-12T03:25:33.385Z,16.98
2022-10-12T03:28:00.281Z,12.68
2022-10-12T03:30:26.660Z,15.68
2022-10-12T03:32:53.032Z,13.38
2022-10-12T03:35:19.546Z,14.57
2022-10-12T03:37:45.900Z,11.85
2022-10-12T03:40:12.436Z,14.88
2022-10-12T03:42:38.860Z,12.55
2022-10-12T03:45:05.396Z,13.07
2022-10-12T03:47:31.740Z,14.80
2022-10-12T03:49:58.268Z,8.32
2022-10-12T03:52:24.597Z,12.65
2022-10-12T03:54:50.896Z,18.40
2022-10-12T03:57:17.443Z,12.82
2022-10-12T03:59:43.798Z,13.55
2022-10-12T04:02:14.352Z,11.02
2022-10-12T04:04:44.473Z,18.15
2022-10-12T04:07:10.891Z,15.07
2022-10-12T04:09:37.385Z,14.25
2022-10-12T04:12:03.838Z,13.43
2022-10-12T04:14:30.161Z,12.32
2022-10-12T04:16:56.528Z,17.65
2022-10-12T04:19:22.908Z,12.40
2022-10-12T04:21:49.507Z,12.90
2022-10-12T04:24:15.920Z,12.38
2022-10-12T04:26:42.271Z,14.60
2022-10-12T04:29:08.631Z,14.90
2022-10-12T04:31:34.927Z,12.35
2022-10-12T04:34:01.281Z,10.63
2022-10-12T04:36:27.634Z,13.13
2022-10-12T04:38:58.550Z,15.68
2022-10-12T04:41:27.276Z,19.27
2022-10-12T04:43:54.798Z,17.63
2022-10-12T04:46:21.571Z,13.52
2022-10-12T04:48:47.924Z,14.18
2022-10-12T04:51:14.352Z,19.98
2022-10-12T04:53:40.664Z,11.50
2022-10-12T04:56:07.204Z,15.52
2022-10-12T04:58:33.596Z,14.68
2022-10-12T05:00:59.916Z,17.23
2022-10-12T05:03:26.311Z,14.75
2022-10-12T05:05:52.699Z,12.23
2022-10-12T05:08:19.073Z,13.55
2022-10-12T05:10:47.148Z,18.33
2022-10-12T05:13:13.910Z,18.42
2022-10-12T05:15:41.894Z,15.45
2022-10-12T05:18:08.614Z,12.27
2022-10-12T05:20:35.322Z,20.42
2022-10-12T05:23:01.900Z,17.52
2022-10-12T05:25:29.677Z,15.02
2022-10-12T05:27:56.488Z,16.02
2022-10-12T05:30:23.289Z,15.07
2022-10-12T05:32:49.875Z,22.95
2022-10-12T05:35:16.158Z,19.02
2022-10-12T05:37:42.483Z,12.10
2022-10-12T05:40:09.008Z,20.85
2022-10-12T05:42:35.894Z,15.07
2022-10-12T05:45:02.645Z,20.73
2022-10-12T05:47:28.962Z,16.80
2022-10-12T05:49:55.306Z,20.05
2022-10-12T05:52:22.063Z,15.95
2022-10-12T05:54:48.459Z,14.30
2022-10-12T05:57:15.449Z,17.65
2022-10-12T05:59:42.481Z,18.75
2022-10-12T06:02:12.851Z,21.20
2022-10-12T06:04:39.262Z,15.48
2022-10-12T06:07:05.647Z,19.40
2022-10-12T06:09:31.991Z,17.98
2022-10-12T06:11:58.890Z,16.10
2022-10-12T06:14:25.221Z,17.05
2022-10-12T06:16:54.464Z,17.88
2022-10-12T06:19:21.014Z,14.07
2022-10-12T06:21:47.522Z,15.10
2022-10-12T06:24:13.857Z,17.55
2022-10-12T06:26:40.206Z,15.18
2022-10-12T06:29:06.581Z,16.52
2022-10-12T06:31:33.946Z,17.05
2022-10-12T06:34:00.337Z,19.25
2022-10-12T06:36:26.697Z,14.75
2022-10-12T06:38:53.375Z,14.52
2022-10-12T06:41:19.652Z,17.35
2022-10-12T06:43:45.951Z,18.52
2022-10-12T06:46:12.397Z,11.70
2022-10-12T06:48:38.750Z,14.15
2022-10-12T06:51:05.158Z,17.85
2022-10-12T06:53:32.984Z,15.15
2022-10-12T06:55:59.506Z,16.90
2022-10-12T06:58:25.801Z,16.75
2022-10-12T07:00:52.616Z,21.92
2022-10-12T07:03:19.245Z,12.65
2022-10-12T07:05:45.563Z,14.45
2022-10-12T07:08:11.956Z,17.58
2022-10-12T07:10:38.394Z,15.05
2022-10-12T07:13:04.755Z,14.13
2022-10-12T07:15:31.110Z,14.82
2022-10-12T07:17:57.460Z,11.48
2022-10-12T07:20:23.832Z,19.80
2022-10-12T07:22:50.183Z,15.00
2022-10-12T07:25:16.618Z,14.27
2022-10-12T07:27:43.078Z,15.52
2022-10-12T07:30:10.548Z,18.83
2022-10-12T07:32:36.872Z,11.98
2022-10-12T07:35:03.312Z,26.27
2022-10-12T07:37:29.647Z,14.57
2022-10-12T07:39:57.615Z,15.70
2022-10-12T07:42:24.706Z,11.88
2022-10-12T07:44:51.100Z,9.30
2022-10-12T07:47:17.816Z,17.40
2022-10-12T07:49:44.183Z,10.52
2022-10-12T07:52:10.756Z,18.35
2022-10-12T07:54:37.062Z,8.32
2022-10-12T07:57:03.450Z,10.38
2022-10-12T07:59:29.783Z,11.63
2022-10-12T08:01:56.214Z,13.30
2022-10-12T08:04:22.684Z,11.48
2022-10-12T08:06:48.996Z,9.70
2022-10-12T08:09:15.375Z,16.17
2022-10-12T08:11:41.998Z,16.73
2022-10-12T08:14:15.628Z,15.48
2022-10-12T08:16:45.407Z,18.02
2022-10-12T08:19:12.027Z,20.15
2022-10-12T08:21:38.458Z,17.02
2022-10-12T08:24:04.945Z,11.10
2022-10-12T08:26:31.461Z,11.52
2022-10-12T08:28:57.786Z,16.00
2022-10-12T08:31:24.143Z,12.48
2022-10-12T08:33:50.484Z,18.80
2022-10-12T08:36:16.980Z,18.92
2022-10-12T08:38:43.688Z,13.30
2022-10-12T08:41:13.013Z,12.25
2022-10-12T08:43:58.198Z,14.30
2022-10-12T08:46:25.307Z,15.93
2022-10-12T08:48:57.475Z,12.73
2022-10-12T08:51:26.203Z,16.10
2022-10-12T08:53:52.570Z,12.18
2022-10-12T08:56:20.077Z,11.70
2022-10-12T08:58:47.396Z,10.88
2022-10-12T09:01:22.830Z,11.48
2022-10-12T09:04:14.668Z,9.32
2022-10-12T09:06:55.221Z,16.50
2022-10-12T09:09:41.515Z,7.07
2022-10-12T09:12:10.323Z,9.38
2022-10-12T09:14:37.963Z,11.02
2022-10-12T09:17:17.689Z,14.68
2022-10-12T09:19:47.634Z,13.25
2022-10-12T09:22:22.855Z,9.93
2022-10-12T09:24:58.965Z,13.98
2022-10-12T09:27:32.300Z,15.75
2022-10-12T09:30:00.749Z,9.65
2022-10-12T09:32:33.173Z,14.93
2022-10-12T09:34:59.810Z,9.93
2022-10-12T09:37:29.243Z,7.00
2022-10-12T09:39:55.908Z,11.55
2022-10-12T09:42:22.717Z,13.13
2022-10-12T09:44:57.396Z,9.38
2022-10-12T09:47:31.362Z,10.65
2022-10-12T09:49:59.105Z,14.73
2022-10-12T09:52:39.723Z,12.85
2022-10-12T09:55:22.953Z,12.52
2022-10-12T09:57:54.471Z,7.10
2022-10-12T10:00:23.986Z,12.73
2022-10-12T10:02:51.361Z,11.77
2022-10-12T10:05:36.933Z,13.15
2022-10-12T10:08:29.486Z,11.10
2022-10-12T10:10:56.808Z,8.80
2022-10-12T10:13:26.295Z,8.57
2022-10-12T10:16:05.211Z,8.35
2022-10-12T10:18:31.517Z,12.00
2022-10-12T10:20:58.825Z,10.48
2022-10-12T10:23:28.132Z,9.68
2022-10-12T10:25:58.881Z,11.38
2022-10-12T10:28:29.114Z,10.25
2022-10-12T10:30:56.543Z,10.80
2022-10-12T10:33:23.179Z,7.80
2022-10-12T10:36:09.003Z,8.93
2022-10-12T10:41:05.042Z,8.68
2022-10-12T10:43:32.078Z,10.85
2022-10-12T10:46:00.503Z,8.90
2022-10-12T10:48:31.603Z,11.98
2022-10-12T10:51:00.957Z,11.45
2022-10-12T10:53:30.811Z,8.98
2022-10-12T10:56:02.709Z,9.15
2022-10-12T10:58:34.080Z,10.02
2022-10-12T11:01:02.146Z,9.27
2022-10-12T11:03:31.439Z,8.32
2022-10-12T11:06:06.965Z,8.70
2022-10-12T11:08:35.582Z,10.98
2022-10-12T11:11:13.639Z,8.38
2022-10-12T11:13:42.651Z,9.10
2022-10-12T11:16:27.616Z,9.57
2022-10-12T11:18:58.746Z,10.60
2022-10-12T11:21:25.061Z,7.78
2022-10-12T11:24:02.250Z,8.55
2022-10-12T11:26:31.556Z,7.90
2022-10-12T11:28:59.319Z,12.52
2022-10-12T11:31:31.246Z,13.65
2022-10-12T11:33:59.312Z,8.73
2022-10-12T11:36:27.512Z,9.82
2022-10-12T11:39:06.066Z,9.45
2022-10-12T11:42:16.944Z,9.95
2022-10-12T11:47:10.196Z,11.98
2022-10-12T11:49:36.504Z,7.32
2022-10-12T11:52:05.516Z,7.07
2022-10-12T11:54:34.667Z,8.82
2022-10-12T11:57:04.840Z,13.07
2022-10-12T11:59:34.739Z,8.45
2022-10-12T12:02:04.069Z,8.30
2022-10-12T12:04:42.700Z,11.70
2022-10-12T12:07:29.239Z,12.73
2022-10-12T12:09:55.551Z,7.88
2022-10-12T12:12:25.870Z,8.35
2022-10-12T12:14:55.122Z,11.13
2022-10-12T12:17:28.029Z,7.50
2022-10-12T12:19:58.486Z,9.57
2022-10-12T12:22:26.600Z,7.88
2022-10-12T12:25:00.431Z,9.93
2022-10-12T12:27:40.873Z,9.05
2022-10-12T12:30:19.567Z,9.25
2022-10-12T12:32:50.971Z,6.95
2022-10-12T12:35:22.451Z,10.48
2022-10-12T12:37:49.530Z,8.95
2022-10-12T12:40:23.003Z,8.00
2022-10-12T12:42:49.740Z,7.35
2022-10-12T12:45:32.184Z,7.88
2022-10-12T12:47:58.570Z,12.65
2022-10-12T12:50:27.962Z,10.20
2022-10-12T12:52:59.514Z,14.80
2022-10-12T12:55:29.172Z,10.85
2022-10-12T12:58:01.910Z,9.07
2022-10-12T13:00:39.188Z,8.65
2022-10-12T13:03:19.932Z,12.82
2022-10-12T13:05:49.235Z,9.32
2022-10-12T13:08:22.196Z,9.63
2022-10-12T13:11:03.480Z,7.47
2022-10-12T13:13:38.071Z,9.13
2022-10-12T13:18:48.451Z,12.70
2022-10-12T13:21:26.243Z,9.45
2022-10-12T13:24:07.878Z,9.57
2022-10-12T13:26:35.647Z,6.38
2022-10-12T13:29:02.691Z,10.93
2022-10-12T13:31:41.055Z,6.97
2022-10-12T13:34:17.536Z,10.10
2022-10-12T13:36:50.534Z,6.85
2022-10-12T13:39:18.717Z,8.48
2022-10-12T13:41:46.541Z,10.55
2022-10-12T13:44:19.795Z,10.50
2022-10-12T13:46:47.593Z,10.65
2022-10-12T13:49:16.978Z,8.60
2022-10-12T13:51:44.263Z,15.15
2022-10-12T13:54:33.846Z,9.55
2022-10-12T13:57:04.734Z,11.25
2022-10-12T13:59:33.626Z,12.75
2022-10-12T14:02:01.645Z,14.88
2022-10-12T14:04:29.353Z,12.02
2022-10-12T14:06:58.747Z,9.40
2022-10-12T14:09:25.823Z,15.35
2022-10-12T14:11:53.117Z,9.52
2022-10-12T14:14:19.820Z,9.93
2022-10-12T14:16:46.188Z,10.85
2022-10-12T14:19:32.145Z,9.27
2022-10-12T14:26:55.301Z,7.88
2022-10-12T14:29:26.905Z,7.93
2022-10-12T14:31:54.796Z,10.60
2022-10-12T14:34:27.056Z,16.63
2022-10-12T14:37:08.680Z,12.30
2022-10-12T14:39:35.528Z,17.23
2022-10-12T14:42:18.827Z,9.88
2022-10-12T14:44:45.165Z,11.05
2022-10-12T14:47:22.102Z,13.27
2022-10-12T14:49:49.581Z,10.98
2022-10-12T14:52:34.815Z,8.43
2022-10-12T14:55:01.270Z,13.50
2022-10-12T14:57:28.434Z,13.88
2022-10-12T14:59:54.749Z,11.80
2022-10-12T15:02:23.051Z,8.65
2022-10-12T15:04:49.483Z,15.98
2022-10-12T15:07:20.010Z,11.85
2022-10-12T15:09:46.822Z,12.23
2022-10-12T15:12:14.591Z,10.60
2022-10-12T15:14:42.289Z,12.30
2022-10-12T15:17:13.122Z,11.43
2022-10-12T15:19:40.447Z,11.55
2022-10-12T15:22:07.925Z,15.68
2022-10-12T15:24:34.596Z,14.27
2022-10-12T15:27:00.970Z,15.48
2022-10-12T15:29:27.290Z,13.25
2022-10-12T15:31:53.768Z,11.13
2022-10-12T15:34:20.094Z,13.88
2022-10-12T15:36:47.640Z,16.65
2022-10-12T15:39:16.774Z,10.95
2022-10-12T15:41:43.400Z,10.02
2022-10-12T15:44:11.389Z,13.38
2022-10-12T15:46:41.181Z,13.57
2022-10-12T15:49:07.825Z,18.65
2022-10-12T15:51:37.803Z,10.90
2022-10-12T15:54:04.218Z,15.45
2022-10-12T15:56:30.571Z,12.60
2022-10-12T15:58:57.023Z,12.07
2022-10-12T16:01:24.510Z,14.80
2022-10-12T16:03:50.918Z,14.80
2022-10-12T16:06:17.322Z,15.35
2022-10-12T16:08:43.793Z,12.82
2022-10-12T16:11:12.921Z,13.27
2022-10-12T16:13:45.420Z,15.25
2022-10-12T16:16:15.002Z,14.95
2022-10-12T16:18:41.324Z,12.30
2022-10-12T16:21:07.825Z,11.38
2022-10-12T16:23:36.445Z,11.68
2022-10-12T16:26:04.258Z,18.20
2022-10-12T16:28:30.659Z,16.38
2022-10-12T16:30:57.136Z,14.63
2022-10-12T16:33:23.518Z,13.13
2022-10-12T16:35:49.817Z,13.25
2022-10-12T16:38:16.675Z,12.65
2022-10-12T16:40:43.291Z,19.67
2022-10-12T16:43:10.422Z,14.02
2022-10-12T16:45:36.766Z,16.00
2022-10-12T16:48:03.464Z,14.88
2022-10-12T16:50:29.872Z,17.70
2022-10-12T16:52:56.201Z,20.33
2022-10-12T16:55:22.522Z,17.50
2022-10-12T16:57:48.867Z,25.75
2022-10-12T17:00:17.128Z,22.83
2022-10-12T17:02:43.604Z,17.75
2022-10-12T17:05:10.113Z,14.75
2022-10-12T17:07:36.564Z,16.80
2022-10-12T17:10:03.352Z,22.10
2022-10-12T17:12:29.683Z,21.52
2022-10-12T17:14:56.085Z,14.32
2022-10-12T17:17:22.428Z,13.40
2022-10-12T17:19:48.909Z,17.85
2022-10-12T17:22:15.495Z,17.63
2022-10-12T17:24:42.462Z,15.48
2022-10-12T17:27:09.792Z,25.92
2022-10-12T17:29:36.670Z,17.13
2022-10-12T17:32:03.913Z,17.10
2022-10-12T17:34:34.276Z,18.08
2022-10-12T17:37:01.630Z,21.75
2022-10-12T17:39:29.026Z,15.80
2022-10-12T17:41:55.430Z,20.30
2022-10-12T17:44:22.085Z,23.95
2022-10-12T17:46:49.594Z,17.83
2022-10-12T17:49:22.091Z,20.50
2022-10-12T17:51:51.071Z,19.40
2022-10-12T17:54:18.312Z,20.40
2022-10-12T17:56:44.688Z,22.73
2022-10-12T17:59:12.956Z,15.05
2022-10-12T18:01:39.376Z,17.08
2022-10-12T18:04:06.090Z,21.58
2022-10-12T18:06:33.029Z,19.67
2022-10-12T18:09:00.736Z,15.13
2022-10-12T18:11:27.185Z,24.20
2022-10-12T18:13:54.549Z,15.80
2022-10-12T18:16:28.192Z,19.60
2022-10-12T18:18:55.104Z,19.45
2022-10-12T18:21:22.679Z,21.60
2022-10-12T18:23:49.329Z,17.58
2022-10-12T18:26:20.063Z,21.48
2022-10-12T18:28:47.070Z,21.48
2022-10-12T18:31:17.524Z,20.65
2022-10-12T18:33:43.907Z,17.25
2022-10-12T18:36:11.301Z,18.52
2022-10-12T18:38:37.624Z,19.35
2022-10-12T18:41:05.150Z,20.10
2022-10-12T18:43:31.624Z,18.08
2022-10-12T18:45:58.040Z,26.90
2022-10-12T18:48:24.520Z,19.45
2022-10-12T18:50:52.530Z,27.95
2022-10-12T18:53:19.829Z,19.60
2022-10-12T18:55:46.250Z,19.20
2022-10-12T18:58:12.663Z,19.48
2022-10-12T19:00:40.018Z,25.48
2022-10-12T19:03:06.416Z,23.92
2022-10-12T19:05:32.724Z,18.23
2022-10-12T19:07:59.067Z,19.85
2022-10-12T19:10:25.387Z,23.13
2022-10-12T19:12:51.750Z,25.60
2022-10-12T19:15:18.089Z,28.98
2022-10-12T19:17:44.417Z,20.83
2022-10-12T19:20:10.941Z,20.48
2022-10-12T19:22:37.310Z,22.15
2022-10-12T19:25:04.139Z,24.67
2022-10-12T19:27:30.498Z,20.67
2022-10-12T19:29:56.958Z,22.38
2022-10-12T19:32:23.380Z,21.92
2022-10-12T19:34:52.762Z,24.90
2022-10-12T19:37:19.126Z,25.38
2022-10-12T19:39:47.052Z,22.23
2022-10-12T19:42:13.331Z,21.58
2022-10-12T19:44:39.733Z,15.35
2022-10-12T19:47:06.091Z,19.65
2022-10-12T19:49:36.565Z,23.95
2022-10-12T19:52:04.402Z,16.45
2022-10-12T19:54:35.317Z,22.13
2022-10-12T19:57:02.480Z,23.20
2022-10-12T19:59:28.907Z,22.83
2022-10-12T20:01:55.226Z,20.67
2022-10-12T20:04:22.077Z,21.15
2022-10-12T20:06:48.380Z,19.10
2022-10-12T20:09:14.790Z,21.27
2022-10-12T20:11:41.196Z,21.67
2022-10-12T20:14:07.898Z,23.27
2022-10-12T20:16:35.356Z,24.92
2022-10-12T20:19:02.368Z,24.33
2022-10-12T20:21:31.480Z,25.75
2022-10-12T20:23:57.881Z,27.27
2022-10-12T20:26:25.340Z,19.35
2022-10-12T20:28:52.387Z,23.15
2022-10-12T20:31:23.103Z,24.60
2022-10-12T20:33:56.102Z,23.13
2022-10-12T20:36:23.893Z,25.05
2022-10-12T20:38:50.818Z,19.63
2022-10-12T20:41:17.821Z,19.48
2022-10-12T20:43:44.791Z,24.77
2022-10-12T20:46:15.136Z,19.08
2022-10-12T20:48:42.454Z,25.08
2022-10-12T20:51:09.844Z,19.73
2022-10-12T20:53:37.892Z,24.98
2022-10-12T20:56:05.236Z,27.35
2022-10-12T20:58:31.643Z,23.30
2022-10-12T21:01:10.766Z,20.90
2022-10-12T21:03:37.360Z,23.25
2022-10-12T21:06:08.220Z,22.38
2022-10-12T21:08:34.713Z,23.65
2022-10-12T21:11:01.171Z,24.67
2022-10-12T21:13:31.463Z,25.08
2022-10-12T21:15:58.524Z,21.60
2022-10-12T21:18:24.861Z,24.33
2022-10-12T21:20:55.461Z,22.25
2022-10-12T21:23:22.003Z,31.63
2022-10-12T21:25:48.308Z,33.80
2022-10-12T21:28:15.151Z,34.72
2022-10-12T21:30:41.633Z,23.92
2022-10-12T21:33:07.988Z,22.48
2022-10-12T21:35:41.055Z,20.63
2022-10-12T21:38:07.816Z,23.70
2022-10-12T21:40:35.458Z,25.92
2022-10-12T21:43:02.881Z,23.58
2022-10-12T21:45:29.286Z,18.17
2022-10-12T21:47:55.587Z,27.83
2022-10-12T21:50:21.926Z,28.42
2022-10-12T21:52:50.055Z,22.17
2022-10-12T21:55:16.583Z,21.83
2022-10-12T21:57:42.950Z,21.27
2022-10-12T22:00:09.772Z,25.52
2022-10-12T22:02:36.161Z,25.05
2022-10-12T22:05:02.491Z,20.42
2022-10-12T22:07:28.840Z,23.45
2022-10-12T22:09:55.135Z,24.35
2022-10-12T22:12:21.550Z,23.90
2022-10-12T22:14:47.972Z,20.65
2022-10-12T22:17:14.413Z,20.17
2022-10-12T22:19:40.988Z,20.13
2022-10-12T22:22:07.394Z,21.35
2022-10-12T22:24:33.756Z,22.83
2022-10-12T22:27:00.264Z,20.77
2022-10-12T22:29:26.657Z,25.77
2022-10-12T22:31:53.037Z,20.83
2022-10-12T22:34:19.428Z,27.98
2022-10-12T22:36:45.791Z,20.77
2022-10-12T22:39:12.093Z,22.95
2022-10-12T22:41:38.457Z,21.48
2022-10-12T22:44:04.883Z,21.10
2022-10-12T22:46:31.392Z,20.98
2022-10-12T22:48:57.780Z,23.48
2022-10-12T22:51:31.356Z,19.92
2022-10-12T22:53:57.893Z,18.60
2022-10-12T22:56:24.279Z,25.48
2022-10-12T22:58:57.758Z,24.80
2022-10-12T23:01:24.910Z,25.63
2022-10-12T23:03:51.345Z,27.08
2022-10-12T23:06:18.750Z,23.63
2022-10-12T23:08:45.633Z,28.33
2022-10-12T23:11:14.057Z,29.48
2022-10-12T23:13:40.832Z,29.73
2022-10-12T23:16:08.676Z,25.02
2022-10-12T23:18:35.113Z,28.50
2022-10-12T23:21:08.928Z,32.42
2022-10-12T23:23:35.751Z,30.38
2022-10-12T23:26:03.288Z,29.00
2022-10-12T23:28:30.037Z,24.88
2022-10-12T23:30:56.408Z,30.38
2022-10-12T23:33:22.800Z,30.50
2022-10-12T23:35:58.920Z,25.65
2022-10-12T23:38:25.946Z,29.75
2022-10-12T23:40:52.315Z,30.20
2022-10-12T23:43:18.723Z,24.77
2022-10-12T23:45:45.339Z,25.73
2022-10-12T23:48:11.705Z,24.02
2022-10-12T23:50:38.559Z,26.95
2022-10-12T23:53:05.338Z,24.27
2022-10-12T23:55:32.539Z,25.10
2022-10-12T23:57:59.215Z,29.80
